createdAt,value
2018-12-27T00:02:24.614Z,22.90
2018-12-27T00:04:53.040Z,24.23
2018-12-27T00:07:21.458Z,25.97
2018-12-27T00:09:49.890Z,24.53
2018-12-27T00:12:18.469Z,25.90
2018-12-27T00:14:46.909Z,23.73
2018-12-27T00:17:15.321Z,25.37
2018-12-27T00:19:43.766Z,23.57
2018-12-27T00:22:12.186Z,25.83
2018-12-27T00:24:40.620Z,24.20
2018-12-27T00:27:09.038Z,26.90
2018-12-27T00:29:37.464Z,28.37
2018-12-27T00:32:06.050Z,30.07
2018-12-27T00:34:34.638Z,26.70
2018-12-27T00:37:03.218Z,28.17
2018-12-27T00:39:31.797Z,24.20
2018-12-27T00:42:00.381Z,28.40
2018-12-27T00:44:28.961Z,26.70
2018-12-27T00:46:57.563Z,25.37
2018-12-27T00:49:26.185Z,27.07
2018-12-27T00:51:54.766Z,26.40
2018-12-27T00:54:23.354Z,26.20
2018-12-27T00:56:51.930Z,27.73
2018-12-27T00:59:20.513Z,27.00
2018-12-27T01:01:49.171Z,28.83
2018-12-27T01:04:17.754Z,25.30
2018-12-27T01:06:46.332Z,27.43
2018-12-27T01:09:14.904Z,27.50
2018-12-27T01:11:43.493Z,26.33
2018-12-27T01:14:12.065Z,28.03
2018-12-27T01:16:40.648Z,25.90
2018-12-27T01:19:09.226Z,25.97
2018-12-27T01:21:37.808Z,25.60
2018-12-27T01:24:06.379Z,27.80
2018-12-27T01:26:34.965Z,28.23
2018-12-27T01:29:03.537Z,25.87
2018-12-27T01:31:32.125Z,27.60
2018-12-27T01:34:00.697Z,28.17
2018-12-27T01:36:29.284Z,27.03
2018-12-27T01:38:57.860Z,26.27
2018-12-27T01:41:26.450Z,26.23
2018-12-27T01:43:55.034Z,27.23
2018-12-27T01:46:23.612Z,27.23
2018-12-27T01:48:52.188Z,28.07
2018-12-27T01:51:20.810Z,25.83
2018-12-27T01:53:49.428Z,25.57
2018-12-27T01:56:18.013Z,24.60
2018-12-27T01:58:46.596Z,24.90
2018-12-27T02:01:15.185Z,24.83
2018-12-27T02:03:43.767Z,25.90
2018-12-27T02:06:12.377Z,24.20
2018-12-27T02:08:40.948Z,21.80
2018-12-27T02:11:09.524Z,24.03
2018-12-27T02:13:38.105Z,23.57
2018-12-27T02:16:06.676Z,23.87
2018-12-27T02:18:35.261Z,23.40
2018-12-27T02:21:03.838Z,24.80
2018-12-27T02:23:32.430Z,24.17
2018-12-27T02:26:01.001Z,23.13
2018-12-27T02:28:29.588Z,25.33
2018-12-27T02:30:58.164Z,25.90
2018-12-27T02:33:35.072Z,25.37
2018-12-27T02:35:57.063Z,26.03
2018-12-27T02:38:25.644Z,23.80
2018-12-27T02:40:54.216Z,22.33
2018-12-27T02:43:22.801Z,25.03
2018-12-27T02:45:51.385Z,23.57
2018-12-27T02:48:20.028Z,24.17
2018-12-27T02:50:48.608Z,23.20
2018-12-27T02:53:17.185Z,23.83
2018-12-27T02:55:45.760Z,23.43
2018-12-27T02:58:14.347Z,25.67
2018-12-27T03:00:42.926Z,25.10
2018-12-27T03:03:11.502Z,23.47
2018-12-27T03:05:40.084Z,25.77
2018-12-27T03:08:08.660Z,26.33
2018-12-27T03:10:37.247Z,25.97
2018-12-27T03:13:05.830Z,25.20
2018-12-27T03:15:34.408Z,23.47
2018-12-27T03:18:02.980Z,25.70
2018-12-27T03:20:31.560Z,24.10
2018-12-27T03:23:00.128Z,27.27
2018-12-27T03:25:28.719Z,22.77
2018-12-27T03:27:57.300Z,23.17
2018-12-27T03:30:25.881Z,25.80
2018-12-27T03:32:54.458Z,25.83
2018-12-27T03:35:23.076Z,24.00
2018-12-27T03:37:51.689Z,26.17
2018-12-27T03:40:20.277Z,25.40
2018-12-27T03:42:48.856Z,26.33
2018-12-27T03:45:17.441Z,25.57
2018-12-27T03:47:46.021Z,26.17
2018-12-27T03:50:14.608Z,25.40
2018-12-27T03:52:43.180Z,24.57
2018-12-27T03:55:11.770Z,25.33
2018-12-27T03:57:40.344Z,26.20
2018-12-27T04:00:08.935Z,26.60
2018-12-27T04:02:37.524Z,25.80
2018-12-27T04:05:06.106Z,24.63
2018-12-27T04:07:34.677Z,25.17
2018-12-27T04:10:03.265Z,27.57
2018-12-27T04:12:31.836Z,27.10
2018-12-27T04:15:08.330Z,25.43
2018-12-27T04:17:36.806Z,25.43
2018-12-27T04:20:05.248Z,27.37
2018-12-27T04:22:33.737Z,27.70
2018-12-27T04:25:02.291Z,25.80
2018-12-27T04:27:30.719Z,26.27
2018-12-27T04:29:59.150Z,25.80
2018-12-27T04:32:27.906Z,26.63
2018-12-27T04:34:56.891Z,26.90
2018-12-27T04:37:25.299Z,24.40
2018-12-27T04:39:53.726Z,24.97
2018-12-27T04:42:22.486Z,27.63
2018-12-27T04:44:50.909Z,25.80
2018-12-27T04:47:19.353Z,25.40
2018-12-27T04:49:47.785Z,25.70
2018-12-27T04:52:16.198Z,25.93
2018-12-27T04:54:44.608Z,25.13
2018-12-27T04:57:13.038Z,26.67
2018-12-27T04:59:41.469Z,25.83
2018-12-27T05:02:09.906Z,25.83
2018-12-27T05:04:38.330Z,24.40
2018-12-27T05:07:06.753Z,26.13
2018-12-27T05:09:35.174Z,26.87
2018-12-27T05:12:03.605Z,25.10
2018-12-27T05:14:32.038Z,25.23
2018-12-27T05:17:00.473Z,26.10
2018-12-27T05:19:28.897Z,26.70
2018-12-27T05:21:57.330Z,26.00
2018-12-27T05:24:25.749Z,23.93
2018-12-27T05:26:54.189Z,25.47
2018-12-27T05:29:22.609Z,24.83
2018-12-27T05:31:51.819Z,24.50
2018-12-27T05:34:26.139Z,24.93
2018-12-27T05:36:50.389Z,25.43
2018-12-27T05:39:19.793Z,26.40
2018-12-27T05:41:48.222Z,25.00
2018-12-27T05:44:16.643Z,21.00
2018-12-27T05:46:45.078Z,23.40
2018-12-27T05:49:13.496Z,22.03
2018-12-27T05:51:41.965Z,22.57
2018-12-27T05:54:10.422Z,23.53
2018-12-27T05:56:41.428Z,21.23
2018-12-27T05:59:09.845Z,21.90
2018-12-27T06:01:38.263Z,22.90
2018-12-27T06:04:06.689Z,23.73
2018-12-27T06:06:35.109Z,23.00
2018-12-27T06:09:04.597Z,23.63
2018-12-27T06:11:33.009Z,21.50
2018-12-27T06:14:01.427Z,23.50
2018-12-27T06:16:29.862Z,22.97
2018-12-27T06:18:58.276Z,23.60
2018-12-27T06:21:26.721Z,22.53
2018-12-27T06:23:55.144Z,23.00
2018-12-27T06:26:23.584Z,22.20
2018-12-27T06:28:51.998Z,21.43
2018-12-27T06:31:20.419Z,22.27
2018-12-27T06:33:48.841Z,21.50
2018-12-27T06:36:17.275Z,21.97
2018-12-27T06:38:45.701Z,23.47
2018-12-27T06:41:14.133Z,21.30
2018-12-27T06:43:42.548Z,21.73
2018-12-27T06:46:11.062Z,21.10
2018-12-27T06:48:39.488Z,21.40
2018-12-27T06:51:07.949Z,21.60
2018-12-27T06:53:36.377Z,21.53
2018-12-27T06:56:04.789Z,21.20
2018-12-27T06:58:37.742Z,20.33
2018-12-27T07:01:03.373Z,22.80
2018-12-27T07:03:31.805Z,22.50
2018-12-27T07:06:00.221Z,21.80
2018-12-27T07:08:29.553Z,25.63
2018-12-27T07:10:57.977Z,26.07
2018-12-27T07:13:26.414Z,26.77
2018-12-27T07:15:54.820Z,37.60
2018-12-27T07:18:23.257Z,35.57
2018-12-27T07:20:51.693Z,29.93
2018-12-27T07:23:20.092Z,24.27
2018-12-27T07:25:48.522Z,23.10
2018-12-27T07:28:16.939Z,21.70
2018-12-27T07:30:45.365Z,21.50
2018-12-27T07:33:13.795Z,22.40
2018-12-27T07:35:42.214Z,22.40
2018-12-27T07:38:10.649Z,35.47
2018-12-27T07:40:39.073Z,22.77
2018-12-27T07:43:09.648Z,22.90
2018-12-27T07:45:38.074Z,22.43
2018-12-27T07:48:06.500Z,21.33
2018-12-27T07:50:35.139Z,22.50
2018-12-27T07:53:04.190Z,21.10
2018-12-27T07:55:33.605Z,18.20
2018-12-27T07:58:02.016Z,19.43
2018-12-27T08:00:30.442Z,18.83
2018-12-27T08:03:00.985Z,19.00
2018-12-27T08:05:29.558Z,20.47
2018-12-27T08:07:58.003Z,20.17
2018-12-27T08:10:32.118Z,17.70
2018-12-27T08:13:00.534Z,24.67
2018-12-27T08:15:28.986Z,23.70
2018-12-27T08:17:57.403Z,21.87
2018-12-27T08:20:26.738Z,21.57
2018-12-27T08:22:55.156Z,23.33
2018-12-27T08:25:23.604Z,19.00
2018-12-27T08:27:52.017Z,20.10
2018-12-27T08:30:20.448Z,19.13
2018-12-27T08:32:48.871Z,20.00
2018-12-27T08:35:17.296Z,18.90
2018-12-27T08:37:45.717Z,17.37
2018-12-27T08:40:14.156Z,18.97
2018-12-27T08:42:42.573Z,19.43
2018-12-27T08:45:11.008Z,18.27
2018-12-27T08:47:39.430Z,17.33
2018-12-27T08:50:08.234Z,19.87
2018-12-27T08:52:36.650Z,19.87
2018-12-27T08:55:05.826Z,19.20
2018-12-27T08:57:35.140Z,19.60
2018-12-27T09:00:05.233Z,21.27
2018-12-27T09:02:33.644Z,19.90
2018-12-27T09:05:02.064Z,20.40
2018-12-27T09:07:30.489Z,20.20
2018-12-27T09:09:58.910Z,19.00
2018-12-27T09:12:27.349Z,19.70
2018-12-27T09:14:55.767Z,20.03
2018-12-27T09:17:24.200Z,19.13
2018-12-27T09:19:52.635Z,19.27
2018-12-27T09:22:21.060Z,20.20
2018-12-27T09:24:49.483Z,22.80
2018-12-27T09:27:17.908Z,21.80
2018-12-27T09:29:46.326Z,21.00
2018-12-27T09:32:14.748Z,21.47
2018-12-27T09:34:43.177Z,22.20
2018-12-27T09:37:11.619Z,21.90
2018-12-27T09:39:40.041Z,23.73
2018-12-27T09:42:08.449Z,29.07
2018-12-27T09:44:36.894Z,25.10
2018-12-27T09:47:05.410Z,24.47
2018-12-27T09:49:33.869Z,23.70
2018-12-27T09:52:02.392Z,22.60
2018-12-27T09:54:30.903Z,23.20
2018-12-27T09:56:59.321Z,21.93
2018-12-27T09:59:27.755Z,21.03
2018-12-27T10:01:56.173Z,20.40
2018-12-27T10:04:24.613Z,19.47
2018-12-27T10:06:53.035Z,20.70
2018-12-27T10:09:21.465Z,18.03
2018-12-27T10:11:49.881Z,19.80
2018-12-27T10:14:18.330Z,17.97
2018-12-27T10:16:46.752Z,19.50
2018-12-27T10:19:15.188Z,20.70
2018-12-27T10:21:43.605Z,20.03
2018-12-27T10:24:12.037Z,19.33
2018-12-27T10:26:40.473Z,20.80
2018-12-27T10:29:08.902Z,21.27
2018-12-27T10:31:37.337Z,20.20
2018-12-27T10:34:05.777Z,18.97
2018-12-27T10:36:35.098Z,20.60
2018-12-27T10:39:05.285Z,18.00
2018-12-27T10:41:33.721Z,19.40
2018-12-27T10:44:02.138Z,19.90
2018-12-27T10:46:30.580Z,19.40
2018-12-27T10:48:59.010Z,19.30
2018-12-27T10:51:27.451Z,17.40
2018-12-27T10:53:55.875Z,19.63
2018-12-27T10:56:24.307Z,20.10
2018-12-27T10:58:52.721Z,18.77
2018-12-27T11:01:21.145Z,18.83
2018-12-27T11:03:49.573Z,20.13
2018-12-27T11:06:17.992Z,19.33
2018-12-27T11:08:46.422Z,22.50
2018-12-27T11:11:17.855Z,20.13
2018-12-27T11:13:46.304Z,21.40
2018-12-27T11:16:14.730Z,21.87
2018-12-27T11:18:43.150Z,23.50
2018-12-27T11:21:11.577Z,24.30
2018-12-27T11:23:39.994Z,23.73
2018-12-27T11:26:08.433Z,21.17
2018-12-27T11:28:36.846Z,22.20
2018-12-27T11:31:05.286Z,22.90
2018-12-27T11:33:33.693Z,22.30
2018-12-27T11:36:02.145Z,22.13
2018-12-27T11:38:30.569Z,22.50
2018-12-27T11:40:58.993Z,21.67
2018-12-27T11:43:27.431Z,20.10
2018-12-27T11:45:55.881Z,20.87
2018-12-27T11:48:24.300Z,21.87
2018-12-27T11:50:52.721Z,20.27
2018-12-27T11:53:21.153Z,21.87
2018-12-27T11:55:49.575Z,21.97
2018-12-27T11:58:18.017Z,21.93
2018-12-27T12:00:46.437Z,21.03
2018-12-27T12:03:16.506Z,23.40
2018-12-27T12:05:46.291Z,22.90
2018-12-27T12:08:14.704Z,20.93
2018-12-27T12:10:43.189Z,20.87
2018-12-27T12:13:11.623Z,23.10
2018-12-27T12:15:40.037Z,20.47
2018-12-27T12:18:08.464Z,22.23
2018-12-27T12:20:36.893Z,20.43
2018-12-27T12:23:05.313Z,20.47
2018-12-27T12:25:33.722Z,21.00
2018-12-27T12:28:02.149Z,21.10
2018-12-27T12:30:30.607Z,20.63
2018-12-27T12:32:59.082Z,21.57
2018-12-27T12:35:27.500Z,21.73
2018-12-27T12:37:56.193Z,19.73
2018-12-27T12:40:24.612Z,20.53
2018-12-27T12:42:53.037Z,22.47
2018-12-27T12:45:21.464Z,22.07
2018-12-27T12:47:49.908Z,23.47
2018-12-27T12:50:18.320Z,21.37
2018-12-27T12:52:46.739Z,21.93
2018-12-27T12:55:15.162Z,21.77
2018-12-27T12:57:43.582Z,20.73
2018-12-27T13:00:12.073Z,19.93
2018-12-27T13:02:40.490Z,19.20
2018-12-27T13:05:08.919Z,20.40
2018-12-27T13:07:37.346Z,20.97
2018-12-27T13:10:05.930Z,20.83
2018-12-27T13:12:34.341Z,21.30
2018-12-27T13:15:02.773Z,21.27
2018-12-27T13:17:31.185Z,21.40
2018-12-27T13:19:59.611Z,19.93
2018-12-27T13:22:28.038Z,20.83
2018-12-27T13:24:56.480Z,22.27
2018-12-27T13:27:24.893Z,21.17
2018-12-27T13:29:53.315Z,21.10
2018-12-27T13:32:21.734Z,21.70
2018-12-27T13:34:50.169Z,22.17
2018-12-27T13:37:18.588Z,22.27
2018-12-27T13:39:47.018Z,21.00
2018-12-27T13:42:15.437Z,20.50
2018-12-27T13:44:43.864Z,20.50
2018-12-27T13:47:12.308Z,22.80
2018-12-27T13:49:40.716Z,21.17
2018-12-27T13:52:09.182Z,20.60
2018-12-27T13:54:37.646Z,20.30
2018-12-27T13:57:06.136Z,20.73
2018-12-27T13:59:35.526Z,21.90
2018-12-27T14:02:03.980Z,21.30
2018-12-27T14:04:32.397Z,20.27
2018-12-27T14:07:00.826Z,20.90
2018-12-27T14:09:29.242Z,20.53
2018-12-27T14:11:57.674Z,19.60
2018-12-27T14:14:26.079Z,20.13
2018-12-27T14:16:54.518Z,20.43
2018-12-27T14:19:22.941Z,20.10
2018-12-27T14:21:51.366Z,20.30
2018-12-27T14:24:20.668Z,20.40
2018-12-27T14:26:49.105Z,20.27
2018-12-27T14:29:17.535Z,23.57
2018-12-27T14:31:45.948Z,22.77
2018-12-27T14:34:14.386Z,23.63
2018-12-27T14:36:42.797Z,26.87
2018-12-27T14:39:11.216Z,30.03
2018-12-27T14:41:39.641Z,33.07
2018-12-27T14:44:08.064Z,21.70
2018-12-27T14:46:36.475Z,21.63
2018-12-27T14:49:04.905Z,20.80
2018-12-27T14:51:33.325Z,19.60
2018-12-27T14:54:01.834Z,18.83
2018-12-27T14:56:30.250Z,20.20
2018-12-27T14:58:58.674Z,20.00
2018-12-27T15:01:27.093Z,20.27
2018-12-27T15:03:55.517Z,20.37
2018-12-27T15:06:23.935Z,20.53
2018-12-27T15:08:52.356Z,20.00
2018-12-27T15:11:20.785Z,18.10
2018-12-27T15:13:49.204Z,20.87
2018-12-27T15:16:17.616Z,18.57
2018-12-27T15:18:46.062Z,18.30
2018-12-27T15:21:14.477Z,19.50
2018-12-27T15:23:42.892Z,18.70
2018-12-27T15:26:11.328Z,18.17
2018-12-27T15:28:39.744Z,18.60
2018-12-27T15:31:08.186Z,18.87
2018-12-27T15:33:36.618Z,19.43
2018-12-27T15:36:05.044Z,20.57
2018-12-27T15:38:33.460Z,18.53
2018-12-27T15:41:01.878Z,18.17
2018-12-27T15:43:30.310Z,19.93
2018-12-27T15:45:58.712Z,19.27
2018-12-27T15:48:27.134Z,19.13
2018-12-27T15:50:55.559Z,19.83
2018-12-27T15:53:23.982Z,16.93
2018-12-27T15:55:52.400Z,18.10
2018-12-27T15:58:20.826Z,19.50
2018-12-27T16:00:50.235Z,20.87
2018-12-27T16:03:18.669Z,19.40
2018-12-27T16:05:47.153Z,19.77
2018-12-27T16:08:15.577Z,19.60
2018-12-27T16:10:44.009Z,19.93
2018-12-27T16:13:13.325Z,19.07
2018-12-27T16:15:41.783Z,22.03
2018-12-27T16:18:10.215Z,20.60
2018-12-27T16:20:38.651Z,19.90
2018-12-27T16:23:07.072Z,21.30
2018-12-27T16:25:35.518Z,20.60
2018-12-27T16:28:03.930Z,21.63
2018-12-27T16:30:32.373Z,22.50
2018-12-27T16:33:00.830Z,21.30
2018-12-27T16:35:29.246Z,24.03
2018-12-27T16:37:57.674Z,23.50
2018-12-27T16:40:26.179Z,22.97
2018-12-27T16:42:54.596Z,22.67
2018-12-27T16:45:23.066Z,22.30
2018-12-27T16:47:51.476Z,20.57
2018-12-27T16:50:19.912Z,21.30
2018-12-27T16:52:48.339Z,20.07
2018-12-27T16:55:16.763Z,22.43
2018-12-27T16:57:45.229Z,22.47
2018-12-27T17:00:13.718Z,22.67
2018-12-27T17:02:43.069Z,21.17
2018-12-27T17:05:11.502Z,23.07
2018-12-27T17:07:39.933Z,24.20
2018-12-27T17:10:08.425Z,23.63
2018-12-27T17:12:36.853Z,21.63
2018-12-27T17:15:05.676Z,20.70
2018-12-27T17:17:34.100Z,21.00
2018-12-27T17:20:02.537Z,26.10
2018-12-27T17:22:30.956Z,23.80
2018-12-27T17:24:59.390Z,22.53
2018-12-27T17:27:29.450Z,22.73
2018-12-27T17:29:57.901Z,22.53
2018-12-27T17:32:26.324Z,21.10
2018-12-27T17:34:54.771Z,19.03
2018-12-27T17:37:23.511Z,20.40
2018-12-27T17:39:52.037Z,19.97
2018-12-27T17:42:20.505Z,21.00
2018-12-27T17:44:49.014Z,23.37
2018-12-27T17:47:17.423Z,22.10
2018-12-27T17:49:45.867Z,22.37
2018-12-27T17:52:14.344Z,22.20
2018-12-27T17:54:42.786Z,22.57
2018-12-27T17:57:11.188Z,21.50
2018-12-27T17:59:39.690Z,22.27
2018-12-27T18:02:08.111Z,21.97
2018-12-27T18:04:36.525Z,19.70
2018-12-27T18:07:04.970Z,25.90
2018-12-27T18:09:33.393Z,24.40
2018-12-27T18:12:01.825Z,23.03
2018-12-27T18:14:30.257Z,24.50
2018-12-27T18:16:58.683Z,22.07
2018-12-27T18:19:27.111Z,20.83
2018-12-27T18:21:55.536Z,21.57
2018-12-27T18:24:23.973Z,20.90
2018-12-27T18:26:52.431Z,20.23
2018-12-27T18:29:20.842Z,20.67
2018-12-27T18:31:50.213Z,19.33
2018-12-27T18:34:18.654Z,21.90
2018-12-27T18:36:47.090Z,20.40
2018-12-27T18:39:15.511Z,23.07
2018-12-27T18:41:43.949Z,22.30
2018-12-27T18:44:12.357Z,22.43
2018-12-27T18:46:40.798Z,23.60
2018-12-27T18:49:09.224Z,25.00
2018-12-27T18:51:37.657Z,31.27
2018-12-27T18:54:06.095Z,25.03
2018-12-27T18:56:34.520Z,24.07
2018-12-27T18:59:02.947Z,22.60
2018-12-27T19:01:31.369Z,24.30
2018-12-27T19:03:59.789Z,22.13
2018-12-27T19:06:28.217Z,21.40
2018-12-27T19:08:56.650Z,23.57
2018-12-27T19:12:01.410Z,23.00
2018-12-27T19:14:29.827Z,24.97
2018-12-27T19:16:58.343Z,24.67
2018-12-27T19:19:26.761Z,24.00
2018-12-27T19:21:55.429Z,25.57
2018-12-27T19:24:23.848Z,24.20
2018-12-27T19:26:52.279Z,26.83
2018-12-27T19:29:20.698Z,23.40
2018-12-27T19:31:49.121Z,27.07
2018-12-27T19:34:17.548Z,25.33
2018-12-27T19:36:45.966Z,24.57
2018-12-27T19:39:14.428Z,27.00
2018-12-27T19:41:42.848Z,26.13
2018-12-27T19:44:11.281Z,23.53
2018-12-27T19:46:39.701Z,25.63
2018-12-27T19:49:08.134Z,25.50
2018-12-27T19:51:36.560Z,25.10
2018-12-27T19:54:05.800Z,24.17
2018-12-27T19:56:34.219Z,24.90
2018-12-27T19:59:02.653Z,23.70
2018-12-27T20:01:31.087Z,23.87
2018-12-27T20:03:59.521Z,23.60
2018-12-27T20:06:27.940Z,24.00
2018-12-27T20:08:56.403Z,24.27
2018-12-27T20:11:24.829Z,23.87
2018-12-27T20:13:53.260Z,22.73
2018-12-27T20:16:21.700Z,25.27
2018-12-27T20:18:50.134Z,26.00
2018-12-27T20:21:18.579Z,26.07
2018-12-27T20:23:47.005Z,25.27
2018-12-27T20:26:15.426Z,24.20
2018-12-27T20:28:43.863Z,22.63
2018-12-27T20:31:12.281Z,23.90
2018-12-27T20:33:40.754Z,23.27
2018-12-27T20:36:09.238Z,22.50
2018-12-27T20:38:37.673Z,23.37
2018-12-27T20:41:06.114Z,23.67
2018-12-27T20:43:34.534Z,23.03
2018-12-27T20:46:03.003Z,23.67
2018-12-27T20:48:31.460Z,22.17
2018-12-27T20:50:59.887Z,22.07
2018-12-27T20:53:28.295Z,24.53
2018-12-27T20:55:56.737Z,24.30
2018-12-27T20:58:25.151Z,25.83
2018-12-27T21:00:53.575Z,24.80
2018-12-27T21:03:21.988Z,24.40
2018-12-27T21:05:50.439Z,23.33
2018-12-27T21:08:18.877Z,23.97
2018-12-27T21:10:47.312Z,23.27
2018-12-27T21:13:15.733Z,23.87
2018-12-27T21:15:44.442Z,27.53
2018-12-27T21:18:12.921Z,30.00
2018-12-27T21:20:41.350Z,29.20
2018-12-27T21:23:09.776Z,33.23
2018-12-27T21:25:38.212Z,27.80
2018-12-27T21:28:06.636Z,29.87
2018-12-27T21:30:35.058Z,29.57
2018-12-27T21:33:03.505Z,34.27
2018-12-27T21:35:31.915Z,35.40
2018-12-27T21:38:00.341Z,29.23
2018-12-27T21:40:28.781Z,30.30
2018-12-27T21:42:58.239Z,32.67
2018-12-27T21:45:26.648Z,34.67
2018-12-27T21:47:55.090Z,32.03
2018-12-27T21:50:23.502Z,31.00
2018-12-27T21:52:51.933Z,30.17
2018-12-27T21:55:20.373Z,31.27
2018-12-27T21:57:48.787Z,30.43
2018-12-27T22:00:17.205Z,26.87
2018-12-27T22:02:45.638Z,27.47
2018-12-27T22:05:14.069Z,30.50
2018-12-27T22:07:42.509Z,27.83
2018-12-27T22:10:10.927Z,27.47
2018-12-27T22:12:39.392Z,26.20
2018-12-27T22:15:07.812Z,24.60
2018-12-27T22:17:36.294Z,25.47
2018-12-27T22:20:04.793Z,27.70
2018-12-27T22:22:33.214Z,23.00
2018-12-27T22:25:01.661Z,23.43
2018-12-27T22:27:30.084Z,25.03
2018-12-27T22:29:58.525Z,21.80
2018-12-27T22:32:26.953Z,27.73
2018-12-27T22:34:55.395Z,55.50
2018-12-27T22:37:23.809Z,30.67
2018-12-27T22:39:52.240Z,29.63
2018-12-27T22:42:20.657Z,29.67
2018-12-27T22:44:49.086Z,30.50
2018-12-27T22:47:17.506Z,28.63
2018-12-27T22:49:45.941Z,30.10
2018-12-27T22:52:14.365Z,28.77
2018-12-27T22:54:42.788Z,28.50
2018-12-27T22:57:11.215Z,29.20
2018-12-27T22:59:39.654Z,28.40
2018-12-27T23:02:08.079Z,27.40
2018-12-27T23:04:36.523Z,27.40
2018-12-27T23:07:04.953Z,26.80
2018-12-27T23:09:33.393Z,26.53
2018-12-27T23:12:01.829Z,26.63
2018-12-27T23:14:30.253Z,27.60
2018-12-27T23:16:58.688Z,28.47
2018-12-27T23:19:27.111Z,26.10
2018-12-27T23:21:55.538Z,29.87
2018-12-27T23:24:23.964Z,28.23
2018-12-27T23:26:52.386Z,27.90
2018-12-27T23:29:20.813Z,29.03
2018-12-27T23:31:49.277Z,29.20
2018-12-27T23:34:17.705Z,27.97
2018-12-27T23:36:46.133Z,25.87
2018-12-27T23:39:14.553Z,27.77
2018-12-27T23:41:42.983Z,26.80
2018-12-27T23:44:11.413Z,24.70
2018-12-27T23:46:39.838Z,25.57
2018-12-27T23:49:08.262Z,25.63
2018-12-27T23:51:36.713Z,25.10
2018-12-27T23:54:05.153Z,25.30
2018-12-27T23:56:33.572Z,23.80
2018-12-27T23:59:02.070Z,25.50
